Time;durP1;ratioP1;P1;durP2;ratioP2;P2;SDS_P1;SDS_P2;PMS_P1;PMS_P2;Temp;Humidity;BMP_temperature;BMP_pressure;BME280_temperature;BME280_humidity;BME280_pressure;Samples;Min_cycle;Max_cycle;Signal;HPM_P1;HPM_P2
2023/12/19 14:47:16;;;;;;;24.77;11.13;;;8.20;99.80;;;;;;736839;176;26583;-87
2023/12/19 14:52:44;;;;;;;24.57;10.53;;;8.30;99.90;;;;;;733163;176;26467;-89
2023/12/19 14:58:41;;;;;;;32.73;13.03;;;8.20;99.80;;;;;;783579;183;26456;-91
2023/12/19 19:59:26;;;;;;;92.60;38.03;;;8.50;99.90;;;;;;744775;177;26480;-89
2023/12/19 20:02:21;;;;;;;124.33;48.00;;;8.50;99.90;;;;;;790752;181;27058;-89
2023/12/19 20:05:17;;;;;;;;;;;;;;;;;;;;;
2023/12/19 20:07:56;;;;;;;156.77;53.30;;;8.60;99.90;;;;;;801410;179;27124;-88
2023/12/19 20:10:37;;;;;;;65.50;28.17;;;8.60;99.90;;;;;;800552;179;26447;-87
2023/12/19 20:13:06;;;;;;;103.30;40.43;;;8.60;99.90;;;;;;782616;182;26458;-88
2023/12/19 20:15:35;;;;;;;172.70;48.43;;;8.60;99.90;;;;;;782627;184;26988;-87
2023/12/19 20:18:06;;;;;;;137.10;47.77;;;8.60;99.90;;;;;;791494;179;26478;-89
2023/12/19 20:20:33;;;;;;;27.23;15.70;;;8.60;99.90;;;;;;788398;181;26451;-89
2023/12/19 20:23:26;;;;;;;151.53;51.77;;;8.60;99.90;;;;;;787550;182;26440;-89
2023/12/19 20:25:54;;;;;;;231.20;72.67;;;8.60;99.90;;;;;;783069;181;26448;-88
2023/12/19 20:28:24;;;;;;;223.90;74.07;;;8.50;99.90;;;;;;785591;181;26535;-89
2023/12/19 20:30:53;;;;;;;74.47;31.87;;;8.50;99.90;;;;;;786448;182;26484;-89
2023/12/19 20:33:24;;;;;;;59.57;26.50;;;8.50;99.90;;;;;;790044;182;26498;-89
2023/12/19 20:35:59;;;;;;;29.87;16.10;;;8.50;99.90;;;;;;786153;180;26459;-90
2023/12/19 20:38:31;;;;;;;38.97;15.97;;;8.50;99.90;;;;;;787535;179;27047;-90
2023/12/19 20:41:07;;;;;;;50.70;20.87;;;8.50;99.90;;;;;;792478;181;26430;-88
2023/12/19 20:43:37;;;;;;;45.77;22.90;;;8.50;99.90;;;;;;792932;178;26483;-89
2023/12/19 20:46:04;;;;;;;33.97;17.47;;;8.40;99.90;;;;;;790473;179;27036;-87
2023/12/19 20:48:33;;;;;;;49.77;22.20;;;8.40;99.90;;;;;;799316;178;26462;-88
2023/12/19 20:50:57;;;;;;;106.07;39.57;;;8.40;99.90;;;;;;799407;177;26532;-87
2023/12/19 20:53:24;;;;;;;54.23;24.03;;;8.40;99.90;;;;;;802665;177;26480;-88
2023/12/19 20:55:51;;;;;;;271.87;91.60;;;8.40;99.90;;;;;;811014;177;26437;-88
2023/12/19 20:58:16;;;;;;;78.30;33.10;;;8.40;99.90;;;;;;792984;177;26990;-88
2023/12/19 21:00:43;;;;;;;54.60;25.27;;;8.30;99.90;;;;;;794425;180;26454;-88
2023/12/19 21:03:10;;;;;;;35.50;19.57;;;8.40;99.90;;;;;;801151;178;26416;-88
2023/12/19 21:05:36;;;;;;;35.47;19.03;;;8.30;99.90;;;;;;798041;178;26442;-89
2023/12/19 21:08:03;;;;;;;33.43;17.53;;;8.30;99.90;;;;;;793682;179;26444;-89
2023/12/19 21:10:30;;;;;;;30.60;16.43;;;8.30;99.90;;;;;;795064;180;26459;-89
2023/12/19 21:13:07;;;;;;;40.63;19.73;;;8.30;99.90;;;;;;793478;178;26435;-89
2023/12/19 21:23:30;;;;;;;37.97;20.73;;;8.30;99.90;;;;;;797038;179;26486;-89
2023/12/19 21:25:58;;;;;;;35.03;20.13;;;8.30;99.90;;;;;;795136;180;26428;-89
2023/12/19 21:28:24;;;;;;;32.40;19.50;;;8.30;99.90;;;;;;796604;178;26447;-89
2023/12/19 21:30:50;;;;;;;34.30;20.93;;;8.30;99.90;;;;;;801847;179;27036;-90
2023/12/19 21:33:17;;;;;;;52.90;27.60;;;8.30;99.90;;;;;;792055;181;26515;-89
2023/12/19 21:38:56;;;;;;;48.10;26.67;;;8.30;99.90;;;;;;798901;179;26428;-89
2023/12/19 21:41:26;;;;;;;70.47;33.37;;;8.30;99.90;;;;;;800471;178;26434;-89
2023/12/19 21:44:00;;;;;;;100.50;40.27;;;8.30;99.90;;;;;;797874;175;26433;-89
2023/12/19 21:46:42;;;;;;;117.47;44.70;;;8.40;99.90;;;;;;800916;179;26489;-89
2023/12/19 21:51:55;;;;;;;91.83;39.87;;;8.30;99.90;;;;;;726831;176;26511;-91
2023/12/19 21:55:36;;;;;;;55.53;28.80;;;8.30;99.90;;;;;;778714;185;26559;-91
2023/12/19 22:00:38;;;;;;;91.83;39.80;;;8.30;99.90;;;;;;767700;187;26487;-92
2023/12/19 22:03:22;;;;;;;165.93;66.50;;;8.30;99.90;;;;;;764744;186;26571;-90
2023/12/19 22:08:30;;;;;;;67.47;32.47;;;8.30;99.90;;;;;;766577;184;27096;-91
2023/12/19 22:10:57;;;;;;;81.73;35.73;;;8.30;99.90;;;;;;771346;185;26469;-91
2023/12/19 22:13:23;;;;;;;95.57;41.20;;;8.30;99.90;;;;;;774902;184;28135;-91
2023/12/19 22:15:50;;;;;;;85.33;39.87;;;8.30;99.90;;;;;;778167;181;26535;-90
2023/12/19 22:21:21;;;;;;;143.10;53.77;;;8.30;99.90;;;;;;778712;185;26453;-90
2023/12/19 22:23:59;;;;;;;173.80;64.63;;;8.30;99.90;;;;;;769888;180;26477;-91
2023/12/19 22:26:36;;;;;;;158.20;66.33;;;8.40;99.90;;;;;;777194;184;26484;-91
2023/12/19 22:29:02;;;;;;;120.20;50.70;;;8.30;99.90;;;;;;765984;187;26488;-90
2023/12/19 22:31:32;;;;;;;117.67;52.20;;;8.30;99.90;;;;;;768298;186;26473;-91
2023/12/19 22:33:58;;;;;;;107.60;47.63;;;8.40;99.90;;;;;;775999;184;26462;-91
2023/12/19 22:36:25;;;;;;;115.17;49.37;;;8.40;99.90;;;;;;777816;184;27095;-91
2023/12/19 22:38:51;;;;;;;68.73;33.97;;;8.30;99.90;;;;;;778267;182;26531;-90
2023/12/19 22:41:18;;;;;;;59.50;31.40;;;8.30;99.90;;;;;;780556;183;26499;-91
2023/12/19 22:43:46;;;;;;;138.67;57.40;;;8.40;99.90;;;;;;779642;181;27080;-91
2023/12/19 22:46:11;;;;;;;113.10;47.93;;;8.30;99.90;;;;;;779274;183;26589;-90
2023/12/19 22:48:38;;;;;;;87.00;39.73;;;8.40;99.90;;;;;;779190;183;26547;-91
2023/12/19 22:51:04;;;;;;;67.50;36.07;;;8.40;99.90;;;;;;779492;183;26501;-91
2023/12/19 22:53:31;;;;;;;54.87;29.00;;;8.30;99.90;;;;;;779281;184;27005;-91
2023/12/19 22:55:57;;;;;;;68.00;32.30;;;8.30;99.90;;;;;;778896;181;26491;-91
2023/12/19 22:58:39;;;;;;;58.93;28.97;;;8.30;99.90;;;;;;778691;183;27028;-91
2023/12/19 23:01:06;;;;;;;75.27;37.23;;;8.30;99.90;;;;;;779261;184;26871;-92
2023/12/19 23:03:32;;;;;;;134.57;52.03;;;8.30;99.90;;;;;;780273;183;26485;-93
2023/12/19 23:05:59;;;;;;;139.30;53.87;;;8.30;99.90;;;;;;780561;184;26476;-92
2023/12/19 23:08:25;;;;;;;94.53;46.03;;;8.30;99.90;;;;;;780973;181;26511;-92
2023/12/19 23:11:04;;;;;;;138.80;53.13;;;8.30;99.90;;;;;;780522;184;26515;-92
2023/12/19 23:13:41;;;;;;;235.13;84.00;;;8.30;99.90;;;;;;778338;184;26468;-91
2023/12/19 23:16:07;;;;;;;127.37;51.53;;;8.30;99.90;;;;;;778463;184;26510;-92
2023/12/19 23:18:55;;;;;;;;;;;;;;;;;;;;;
2023/12/19 23:21:29;;;;;;;90.97;41.83;;;8.30;99.90;;;;;;779203;185;26464;-92
2023/12/19 23:23:55;;;;;;;61.00;30.87;;;8.30;99.90;;;;;;778373;184;26518;-92
2023/12/19 23:26:22;;;;;;;123.03;48.77;;;8.20;99.90;;;;;;778361;181;27047;-93
2023/12/19 23:28:48;;;;;;;155.40;57.10;;;8.30;99.90;;;;;;779249;184;26621;-92
2023/12/19 23:31:15;;;;;;;107.47;45.73;;;8.30;99.90;;;;;;775651;185;26450;-92
2023/12/19 23:33:43;;;;;;;149.77;54.50;;;8.30;99.90;;;;;;770971;184;26536;-92
2023/12/19 23:36:08;;;;;;;154.23;55.27;;;8.30;99.90;;;;;;777864;182;26485;-93
2023/12/19 23:38:35;;;;;;;145.77;53.17;;;8.30;99.90;;;;;;779521;181;26503;-93
2023/12/19 23:41:01;;;;;;;112.07;45.17;;;8.30;99.90;;;;;;780541;185;26456;-92
2023/12/19 23:43:28;;;;;;;81.27;36.50;;;8.40;99.90;;;;;;780540;180;26566;-92
2023/12/19 23:45:55;;;;;;;101.43;42.77;;;8.30;99.90;;;;;;779990;185;26483;-93
2023/12/19 23:48:21;;;;;;;62.37;31.30;;;8.30;99.90;;;;;;772356;183;26559;-93
2023/12/19 23:50:48;;;;;;;51.07;27.17;;;8.30;99.90;;;;;;770268;184;26512;-93
2023/12/19 23:53:14;;;;;;;58.67;30.20;;;8.30;99.90;;;;;;771959;186;26472;-93
2023/12/19 23:55:41;;;;;;;68.30;30.63;;;8.30;99.90;;;;;;771006;186;26487;-92
2023/12/19 23:58:09;;;;;;;56.47;27.20;;;8.40;99.90;;;;;;770500;182;26492;-93
